Terminal Aerodrome Forecast
Issued by NWS Green Bay, WI

Home | Current Version | Previous Version | Graphics & Text | Print | Product List | Glossary On
Versions: 1 2 3 4 5 6 7 8 9 10 11 12 13 14 15 16 17 18 19 20
000
FTUS43 KGRB 231733
TAFGRB
TAF
KGRB 231733Z 2318/2418 25012G20KT P6SM SCT015 OVC025
      TEMPO 2318/2322 BKN015
     FM232200 27010G15KT P6SM SCT025
      TEMPO 2322/2402 BKN025
     FM240300 30006KT P6SM FEW012
     FM240800 VRB03KT P6SM SCT012
      TEMPO 2408/2412 4SM BR
     FM241400 07004KT P6SM SCT012 BKN150=

USA.gov is the U.S. government's official web portal to all federal, state and local government web resources and services.